Nearby METAR Reports

 

EHAM - Amsterdam/Schiph, Netherlands
Distance from station: WNW 24km
Updated: 12/08/2020 08:25
Clear
Clear
 Wind from varies
Wind: varies 2 km/h
Temperature: 24°C
Dew Point: 20°C
Humidity: 78%
Barometer: 1014 hPa
Summary: Clear
Visibility: greater than 10 km
2020/08/12 06:25 EHAM 120625Z VRB01KT CAVOK 24/20 Q1014 NOSIG
EHDL - Deelen Rnlafb, Netherlands
Distance from station: ESE 55km
Updated: 12/08/2020 08:25
Overcast
Overcast
 Wind from varies
Wind: varies 2 km/h
Temperature: 24°C
Dew Point: 19°C
Humidity: 74%
Barometer: 1015 hPa
Clouds: Overcast
Visibility: 10 km
Cloud details: Overcast 3962 m
2020/08/12 06:25 EHDL 120625Z AUTO VRB01KT 9999 OVC130 24/19 Q1015 BLU
EHRD - Rotterdam Airpor, Netherlands
Distance from station: SW 55km
Updated: 12/08/2020 08:25
Clear
Clear
 Wind from E
Wind: E 7 km/h
Temperature: 24°C
Dew Point: 19°C
Humidity: 74%
Barometer: 1014 hPa
Clouds: Clear
Visibility: 10 km
2020/08/12 06:25 EHRD 120625Z AUTO 08004KT 020V110 9999 NCD 24/19 Q1014 NOSIG
 
EHGR - Gilze-Rijen Rnla, Netherlands
Distance from station: S 75km
Updated: 12/08/2020 08:25
Clear
Clear
 Wind from ESE
Wind: ESE 9 km/h
Temperature: 23°C
Dew Point: 18°C
Humidity: 74%
Barometer: 1014 hPa
Clouds: Clear
Visibility: 10 km
2020/08/12 06:25 EHGR 120625Z AUTO 11005KT 070V150 9999 NCD 23/18 Q1014 BLU NOSIG
EHVK - Volkel Rnlafb, Netherlands
Distance from station: SSE 78km
Updated: 12/08/2020 08:32
Partly cloudy
Partly cloudy
 Wind from E
Wind: E 9 km/h
Temperature: 24°C
Dew Point: 19°C
Humidity: 74%
Barometer: 1014 hPa
Clouds: Partly cloudy
Visibility: 10 km
Cloud details: Partly cloudy 4572 m
2020/08/12 06:32 EHVK 120632Z AUTO 10005KT 080V160 9999 SCT150 24/19 Q1014 BLU NOSIG
EHKD - De Kooy (navy), Netherlands
Distance from station: NNW 80km
Updated: 12/08/2020 08:41
Partly cloudy
Partly cloudy
 Wind from ESE
Wind: ESE 7 km/h
Temperature: 25°C
Dew Point: 20°C
Humidity: 74%
Barometer: 1015 hPa
Clouds: Partly cloudy
Visibility: 10 km
Cloud details: Partly cloudy 4877 m
2020/08/12 06:41 EHKD 120641Z AUTO 12004KT 090V150 9999 SCT160 25/20 Q1015 BLU NOSIG
 
EHEH - Eindhoven Rnlafb, Netherlands
Distance from station: SSE 89km
Updated: 12/08/2020 08:25
Mostly cloudy
Mostly cloudy
 Wind from E
Wind: E 11 km/h
Temperature: 24°C
Dew Point: 18°C
Humidity: 69%
Barometer: 1014 hPa
Clouds: Mostly cloudy
Visibility: 10 km
Cloud details: Mostly cloudy 2652 m
2020/08/12 06:25 EHEH 120625Z AUTO 10006KT 030V200 9999 BKN087 24/18 Q1014 BLU NOSIG
EDLV - Niederrhein, Germany
Distance from station: SE 100km
Updated: 12/08/2020 08:20
Clear
Clear
 Wind from ESE
Wind: ESE 7 km/h
Temperature: 25°C
Dew Point: 19°C
Humidity: 69%
Barometer: 1015 hPa
Summary: Clear
Visibility: greater than 10 km
2020/08/12 06:20 EDLV 120620Z 12004KT CAVOK 25/19 Q1015
EHQE - Hoorn-A Sea, Netherlands
Distance from station: NW 100km
Updated: 12/08/2020 08:25
Clear
Clear
 Wind from E
Wind: E 20 km/h
Temperature: 24°C
Dew Point: 19°C
Humidity: 74%
Barometer: 1015 hPa
Clouds: Clear
Visibility: 10 km
2020/08/12 06:25 EHQE 120625Z AUTO 08011KT 9999 NCD 24/19 Q1015
 
EHWO - Woensdrecht Rnla, Netherlands
Distance from station: SSW 103km
Updated: 12/08/2020 08:25
Clear
Clear
 Wind from E
Wind: E 7 km/h
Temperature: 22°C
Dew Point: 19°C
Humidity: 83%
Barometer: 1014 hPa
Clouds: Clear
Visibility: 10 km
2020/08/12 06:25 EHWO 120625Z AUTO 09004KT 060V130 9999 NCD 22/19 Q1014 BLU
EHSC - Goeree Le Sea, Netherlands
Distance from station: WSW 104km
Updated: 12/08/2020 08:25

 Wind from E
Wind: E 15 km/h
Temperature: 23°C
Dew Point: 20°C
Humidity: 83%
Barometer: 1013 hPa
Visibility: 10 km
2020/08/12 06:25 EHSC 120625Z AUTO 09008KT 9999 ///////// 23/20 Q1013 W20/H5
EHVL - Vlieland Island, Netherlands
Distance from station: N 112km
Updated: 12/08/2020 08:25
Few Clouds
Few Clouds
 Wind from SE
Wind: SE 19 km/h
Temperature: 23°C
Dew Point: 17°C
Humidity: 69%
Barometer: 1015 hPa
Clouds: Few Clouds
Visibility: 10 km
Cloud details: Few Clouds 3962 m
2020/08/12 06:25 EHVL 120625Z AUTO 13010KT 9999 FEW130 23/17 Q1015 BLU
 
EHLW - Leeuwarden Rnlaf, Netherlands
Distance from station: NNE 118km
Updated: 12/08/2020 08:25
Clear
Clear
 Wind from ESE
Wind: ESE 17 km/h
Temperature: 23°C
Dew Point: 15°C
Humidity: 61%
Barometer: 1015 hPa
Clouds: Clear
Visibility: 10 km
2020/08/12 06:25 EHLW 120625Z AUTO 12009KT 070V150 9999 NCD 23/15 Q1015 BLU NOSIG
EBBL - Kleine-Brogel(Ba, Belgium
Distance from station: SSE 121km
Updated: 12/08/2020 08:25
Few Clouds
Few Clouds
 Wind from ESE
Wind: ESE 7 km/h
Temperature: 22°C
Dew Point: 18°C
Humidity: 78%
Barometer: 1014 hPa
Clouds: Few Clouds
Visibility: 10 km
Cloud details: Few Clouds 3048 m
2020/08/12 06:25 EBBL 120625Z 11004KT 9999 FEW100 22/18 Q1014 BLU BLU
EHPG - P11-B Sea, Netherlands
Distance from station: W 121km
Updated: 12/08/2020 08:25
Partly cloudy
Partly cloudy
 Wind from E
Wind: E 30 km/h
Temperature: 21°C
Dew Point: 18°C
Humidity: 83%
Barometer: 1014 hPa
Clouds: Partly cloudy
Visibility: 10 km
2020/08/12 06:25 EHPG 120625Z AUTO 09016KT 9999 NSC 21/18 Q1014
 
EBAW - Antwerp/Deurne, Belgium
Distance from station: SSW 123km
Updated: 12/08/2020 08:20
Clear
Clear
 Wind from E
Wind: E 6 km/h
Temperature: 22°C
Dew Point: 19°C
Humidity: 83%
Barometer: 1014 hPa
Summary: Clear
Visibility: greater than 10 km
2020/08/12 06:20 EBAW 120620Z 08003KT CAVOK 22/19 Q1014 NOSIG
EHSA - Euro Platform, Netherlands
Distance from station: W 127km
Updated: 12/08/2020 08:25

 Wind from ENE
Wind: ENE 30 km/h
Temperature: 22°C
Dew Point: 18°C
Humidity: 78%
Barometer: 1013 hPa
Visibility: 10 km
2020/08/12 06:25 EHSA 120625Z AUTO 07016KT 9999 ///////// 22/18 Q1013 W17/H6
EBDT - Schaffen, Belgium
Distance from station: S 135km
Updated: 12/08/2020 08:25
Clear
Clear
 Wind from varies
Wind: varies 2 km/h
Temperature: 22°C
Dew Point: 18°C
Humidity: 78%
Barometer: 1014 hPa
Clouds: Clear
Visibility: 10 km
2020/08/12 06:25 EBDT 120625Z AUTO VRB01KT 9999 NCD 22/18 Q1014 BLU
 
EHFS - Vlissingen, Netherlands
Distance from station: SW 135km
Updated: 12/08/2020 08:25
Mist, Clear
Mist, Clear
 Wind from SE
Wind: SE 13 km/h
Temperature: 22°C
Dew Point: 20°C
Humidity: 88%
Barometer: 1014 hPa
Summary: Mist
Clouds: Clear
Visibility: 5 km
2020/08/12 06:25 EHFS 120625Z AUTO 14007KT 5000 BR NCD 22/20 Q1014
EHGG - Groningen/Eelde, Netherlands
Distance from station: NE 139km
Updated: 12/08/2020 08:25
Clear
Clear
 Wind from E
Wind: E 15 km/h
Temperature: 22°C
Dew Point: 15°C
Humidity: 65%
Barometer: 1016 hPa
Clouds: Clear
Visibility: 10 km
2020/08/12 06:25 EHGG 120625Z AUTO 09008KT 050V140 9999 NCD 22/15 Q1016 NOSIG